Time;durP1;ratioP1;P1;durP2;ratioP2;P2;SDS_P1;SDS_P2;PMS_P1;PMS_P2;Temp;Humidity;BMP_temperature;BMP_pressure;BME280_temperature;BME280_humidity;BME280_pressure;Samples;Min_cycle;Max_cycle;Signal;HPM_P1;HPM_P2
2023/10/11 00:00:40;;;;;;;25.40;8.50;;;15.30;99.90;;;;;;4968562;28;20039;-61
2023/10/11 00:03:32;;;;;;;22.25;7.70;;;15.40;99.90;;;;;;4967890;28;20038;-62
2023/10/11 00:05:59;;;;;;;18.70;7.07;;;15.40;99.90;;;;;;4968037;28;20509;-61
2023/10/11 00:08:29;;;;;;;19.95;7.80;;;15.40;99.90;;;;;;4968412;28;20043;-63
2023/10/11 00:10:59;;;;;;;23.92;8.57;;;15.40;99.90;;;;;;4968533;28;20105;-61
2023/10/11 00:13:35;;;;;;;25.92;9.23;;;15.50;99.90;;;;;;4968198;28;20038;-61
2023/10/11 00:16:09;;;;;;;17.52;8.52;;;15.40;99.90;;;;;;4967973;28;20908;-61
2023/10/11 00:18:44;;;;;;;16.60;7.47;;;15.30;99.90;;;;;;4967855;28;20085;-61
2023/10/11 00:21:15;;;;;;;25.63;8.40;;;15.20;99.90;;;;;;4967668;28;20031;-60
2023/10/11 00:23:48;;;;;;;22.65;8.23;;;15.40;99.90;;;;;;4968083;28;20486;-60
2023/10/11 00:26:14;;;;;;;24.42;8.20;;;15.30;99.90;;;;;;4968137;28;20070;-62
2023/10/11 00:28:40;;;;;;;25.90;8.25;;;15.20;99.90;;;;;;4967096;28;20066;-60
2023/10/11 00:31:13;;;;;;;20.85;8.20;;;15.30;99.90;;;;;;4985711;28;20540;-61
2023/10/11 00:33:39;;;;;;;14.57;6.82;;;15.30;99.90;;;;;;4970972;28;20027;-60
2023/10/11 00:36:05;;;;;;;21.80;7.80;;;15.40;99.90;;;;;;4968448;28;20034;-61
2023/10/11 00:38:32;;;;;;;16.70;6.05;;;15.40;99.90;;;;;;4968298;28;20381;-61
2023/10/11 00:43:46;;;;;;;23.52;7.60;;;15.30;99.90;;;;;;4967295;28;20069;-62
2023/10/11 00:46:14;;;;;;;22.10;8.68;;;15.30;99.90;;;;;;4967660;28;20026;-61
2023/10/11 00:49:08;;;;;;;22.50;8.15;;;15.10;99.90;;;;;;4967389;28;20446;-64
2023/10/11 00:51:36;;;;;;;18.38;7.32;;;15.00;99.90;;;;;;4953831;28;20037;-65
2023/10/11 00:54:04;;;;;;;26.13;8.90;;;15.10;99.90;;;;;;4967613;28;20023;-61
2023/10/11 00:56:33;;;;;;;22.27;7.70;;;15.10;99.90;;;;;;4967824;28;20035;-61
2023/10/11 00:59:00;;;;;;;19.42;7.47;;;15.10;99.90;;;;;;4967301;28;20113;-65
2023/10/11 01:01:26;;;;;;;14.27;6.88;;;15.10;99.90;;;;;;4967883;28;20030;-62
2023/10/11 01:03:53;;;;;;;18.50;7.82;;;15.00;99.90;;;;;;4966840;28;20041;-61
2023/10/11 01:06:19;;;;;;;21.90;7.57;;;14.90;99.90;;;;;;4966484;28;20787;-62
2023/10/11 01:08:48;;;;;;;15.20;7.25;;;14.90;99.90;;;;;;4966767;28;20030;-61
2023/10/11 01:11:14;;;;;;;23.45;8.35;;;14.90;99.90;;;;;;4998782;28;20117;-61
2023/10/11 01:13:42;;;;;;;19.50;7.88;;;14.90;99.90;;;;;;4967273;28;20031;-63
2023/10/11 01:16:14;;;;;;;25.33;7.82;;;14.90;99.90;;;;;;4967547;28;20069;-62
2023/10/11 01:18:42;;;;;;;23.27;7.68;;;14.90;99.90;;;;;;4967560;28;20039;-65
2023/10/11 01:21:08;;;;;;;23.05;7.10;;;14.80;99.90;;;;;;4967225;28;20034;-61
2023/10/11 01:23:35;;;;;;;16.17;7.95;;;14.70;99.90;;;;;;4967670;28;20030;-65
2023/10/11 01:26:06;;;;;;;16.30;6.80;;;14.70;99.90;;;;;;4967553;28;20062;-63
2023/10/11 01:28:34;;;;;;;22.13;7.10;;;14.60;99.90;;;;;;4948438;28;20039;-63
2023/10/11 01:31:00;;;;;;;24.15;7.65;;;14.50;99.90;;;;;;4983559;28;20159;-65
2023/10/11 01:33:27;;;;;;;26.02;7.18;;;14.50;99.90;;;;;;4971509;28;20035;-65
2023/10/11 01:35:52;;;;;;;18.52;7.78;;;14.50;99.90;;;;;;4971991;28;20101;-65
2023/10/11 01:38:18;;;;;;;21.50;8.10;;;14.50;99.90;;;;;;4970649;28;20483;-61
2023/10/11 01:40:43;;;;;;;27.73;9.27;;;14.50;99.90;;;;;;4971412;28;20133;-63
2023/10/11 01:43:10;;;;;;;23.27;9.03;;;14.50;99.90;;;;;;4971005;28;20038;-64
2023/10/11 01:45:39;;;;;;;25.20;7.47;;;14.50;99.90;;;;;;4970883;28;20050;-65
2023/10/11 01:48:05;;;;;;;20.50;7.38;;;14.50;99.90;;;;;;4970693;28;20774;-61
2023/10/11 01:50:31;;;;;;;18.50;7.45;;;14.50;99.90;;;;;;4970887;28;20479;-63
2023/10/11 01:52:56;;;;;;;15.50;7.80;;;14.60;99.90;;;;;;4970665;28;20069;-64
2023/10/11 01:55:22;;;;;;;18.87;7.20;;;14.50;99.90;;;;;;4970207;28;20050;-64
2023/10/11 01:57:51;;;;;;;19.92;7.35;;;14.30;99.90;;;;;;4970686;28;20447;-65
2023/10/11 02:00:20;;;;;;;23.13;6.45;;;14.40;99.90;;;;;;4973109;28;20034;-61
2023/10/11 02:02:55;;;;;;;16.67;7.13;;;14.40;99.90;;;;;;4974091;28;20106;-60
2023/10/11 02:05:23;;;;;;;28.40;8.90;;;14.40;99.90;;;;;;4970959;28;20034;-61
2023/10/11 02:07:50;;;;;;;16.45;6.88;;;14.30;99.90;;;;;;4970498;28;20047;-62
2023/10/11 02:10:25;;;;;;;23.42;9.02;;;14.20;99.90;;;;;;4970722;28;20042;-65
2023/10/11 02:12:52;;;;;;;25.67;7.40;;;14.30;99.90;;;;;;4970306;28;20759;-62
2023/10/11 02:15:21;;;;;;;21.83;6.82;;;14.20;99.90;;;;;;4970498;28;20030;-65
2023/10/11 02:17:49;;;;;;;23.58;8.23;;;14.20;99.90;;;;;;4951296;28;20070;-62
2023/10/11 02:20:20;;;;;;;16.45;6.72;;;14.20;99.90;;;;;;4960865;28;20034;-60
2023/10/11 02:22:55;;;;;;;24.70;6.93;;;14.10;99.90;;;;;;4970858;28;20057;-60
2023/10/11 02:25:27;;;;;;;19.02;8.18;;;14.10;99.90;;;;;;4969730;28;20410;-60
2023/10/11 02:27:54;;;;;;;19.27;7.50;;;14.10;99.90;;;;;;4969051;28;20046;-64
2023/10/11 02:30:24;;;;;;;20.52;7.38;;;14.00;99.90;;;;;;4979923;28;20442;-59
2023/10/11 02:32:58;;;;;;;29.38;8.57;;;13.90;99.90;;;;;;4975294;28;20366;-60
2023/10/11 02:35:26;;;;;;;16.42;7.05;;;13.90;99.90;;;;;;4969513;28;20058;-60
2023/10/11 02:37:55;;;;;;;19.35;7.55;;;13.90;99.90;;;;;;4969268;28;20038;-60
2023/10/11 02:40:24;;;;;;;25.13;8.30;;;13.90;99.90;;;;;;4969314;28;20062;-60
2023/10/11 02:42:51;;;;;;;17.60;6.93;;;13.90;99.90;;;;;;4968316;28;20085;-60
2023/10/11 02:45:22;;;;;;;21.08;7.55;;;13.90;99.90;;;;;;4969323;28;20034;-60
2023/10/11 02:47:59;;;;;;;23.40;7.70;;;13.90;99.90;;;;;;4969026;28;20423;-60
2023/10/11 02:50:28;;;;;;;;;;;13.90;99.90;;;;;;4968330;28;20023;-61
2023/10/11 02:53:05;;;;;;;23.73;6.65;;;13.90;99.90;;;;;;4968907;28;19914;-60
2023/10/11 02:55:30;;;;;;;20.05;8.80;;;13.90;99.90;;;;;;4970781;28;20034;-64
2023/10/11 02:58:06;;;;;;;17.07;7.60;;;13.90;99.90;;;;;;4969018;28;20043;-63
2023/10/11 03:00:33;;;;;;;21.48;8.20;;;13.90;99.90;;;;;;4969002;28;20270;-65
2023/10/11 03:03:00;;;;;;;22.02;7.65;;;13.90;99.90;;;;;;4969088;28;20043;-65
2023/10/11 03:05:27;;;;;;;22.80;6.82;;;13.80;99.90;;;;;;4968470;28;20487;-65
2023/10/11 03:08:13;;;;;;;21.20;8.15;;;13.90;99.90;;;;;;4968495;28;20097;-61
2023/10/11 03:10:52;;;;;;;20.13;6.82;;;14.00;99.90;;;;;;4967548;28;20058;-65
2023/10/11 03:13:23;;;;;;;17.50;7.57;;;13.90;99.90;;;;;;4968010;28;20027;-64
2023/10/11 03:15:54;;;;;;;16.35;7.03;;;13.90;99.90;;;;;;4968069;28;20031;-64
2023/10/11 03:18:31;;;;;;;15.80;6.93;;;13.90;99.90;;;;;;4968325;28;20038;-65
2023/10/11 03:21:07;;;;;;;21.40;7.28;;;13.80;99.90;;;;;;4968104;28;20486;-65
2023/10/11 03:23:43;;;;;;;14.02;7.38;;;13.80;99.90;;;;;;4931302;28;1076846;-62
2023/10/11 03:28:57;;;;;;;19.67;7.93;;;13.60;99.90;;;;;;4969101;28;20423;-66
2023/10/11 03:31:29;;;;;;;25.23;7.60;;;13.60;99.90;;;;;;4988523;28;20038;-65
2023/10/11 03:33:59;;;;;;;18.15;7.93;;;13.60;99.90;;;;;;4950329;29;20085;-65
2023/10/11 03:36:42;;;;;;;20.20;7.90;;;13.60;99.90;;;;;;4965838;28;20073;-61
2023/10/11 03:39:13;;;;;;;18.40;7.10;;;13.60;99.90;;;;;;4969508;28;20023;-61
2023/10/11 03:41:45;;;;;;;23.08;7.75;;;13.50;99.90;;;;;;4967445;28;20039;-61
2023/10/11 03:44:16;;;;;;;18.42;6.97;;;13.50;99.90;;;;;;4968984;28;20806;-63
2023/10/11 03:46:47;;;;;;;16.00;7.32;;;13.50;99.90;;;;;;4968217;28;20047;-65
2023/10/11 03:51:48;;;;;;;16.48;7.40;;;13.40;99.90;;;;;;4968426;28;20525;-61
2023/10/11 03:54:19;;;;;;;23.55;7.13;;;13.30;99.90;;;;;;4967425;28;20034;-65
2023/10/11 03:56:45;;;;;;;30.50;7.88;;;13.40;99.90;;;;;;4968422;28;20102;-65
2023/10/11 03:59:12;;;;;;;;;;;13.40;99.90;;;;;;4969704;28;20030;-61
2023/10/11 04:01:38;;;;;;;20.15;7.22;;;13.40;99.90;;;;;;4967750;28;19914;-63
2023/10/11 04:04:05;;;;;;;16.40;7.13;;;13.50;99.90;;;;;;4976503;28;20022;-60
2023/10/11 04:06:34;;;;;;;23.17;7.03;;;13.50;99.90;;;;;;4973377;28;20287;-61
2023/10/11 04:09:03;;;;;;;17.85;7.25;;;13.50;99.90;;;;;;4968916;28;20534;-64
2023/10/11 04:11:47;;;;;;;20.45;7.22;;;13.50;99.90;;;;;;4969042;28;20023;-60
2023/10/11 04:14:23;;;;;;;21.55;6.70;;;13.60;99.90;;;;;;4968892;28;20034;-60
2023/10/11 04:16:52;;;;;;;22.17;8.35;;;13.60;99.90;;;;;;4968329;28;20042;-60
2023/10/11 04:19:21;;;;;;;18.52;7.18;;;13.60;99.90;;;;;;4968097;28;20039;-60
2023/10/11 04:24:19;;;;;;;15.98;6.35;;;13.60;99.90;;;;;;4968552;28;20066;-61
2023/10/11 04:26:53;;;;;;;18.35;6.13;;;13.60;99.90;;;;;;4968149;28;20061;-64
2023/10/11 04:29:22;;;;;;;18.20;5.95;;;13.60;99.90;;;;;;4971386;28;20026;-60
2023/10/11 04:34:32;;;;;;;21.98;5.90;;;13.50;99.90;;;;;;4964921;28;20514;-59
2023/10/11 04:36:59;;;;;;;22.30;6.57;;;13.50;99.90;;;;;;4973946;28;20443;-61
2023/10/11 04:39:33;;;;;;;19.67;6.38;;;13.50;99.90;;;;;;4978541;28;20072;-61
2023/10/11 04:41:59;;;;;;;21.10;6.47;;;13.50;99.90;;;;;;4971452;28;20040;-60
2023/10/11 04:44:42;;;;;;;16.02;6.72;;;13.60;99.90;;;;;;4972719;28;20022;-60
2023/10/11 04:47:09;;;;;;;19.85;7.72;;;13.50;99.90;;;;;;4973299;28;20499;-60
2023/10/11 04:49:35;;;;;;;27.77;6.80;;;13.50;99.90;;;;;;4971699;28;20050;-59
2023/10/11 04:52:10;;;;;;;27.13;6.73;;;13.40;99.90;;;;;;4969080;28;20027;-61
2023/10/11 04:54:36;;;;;;;17.42;6.88;;;13.40;99.90;;;;;;4980301;28;20499;-60
2023/10/11 04:57:48;;;;;;;21.85;6.53;;;13.40;99.90;;;;;;4967464;28;20011;-61
2023/10/11 04:59:59;;;;;;;24.13;7.50;;;13.50;99.90;;;;;;4973582;28;20145;-64
2023/10/11 05:02:32;;;;;;;20.63;5.97;;;13.60;99.90;;;;;;4969879;28;20100;-61
2023/10/11 05:05:05;;;;;;;28.25;7.45;;;13.60;99.90;;;;;;4972066;28;20042;-63
2023/10/11 05:07:32;;;;;;;20.23;6.75;;;13.50;99.90;;;;;;4974605;28;20093;-63
2023/10/11 05:12:44;;;;;;;23.08;6.80;;;13.50;99.90;;;;;;4971646;28;20074;-61
2023/10/11 05:15:10;;;;;;;19.75;7.10;;;13.40;99.90;;;;;;4976171;28;20034;-64
2023/10/11 05:17:39;;;;;;;29.33;7.30;;;13.40;99.90;;;;;;4969100;28;20073;-65
2023/10/11 05:28:07;;;;;;;17.77;6.95;;;13.50;99.90;;;;;;4970747;28;20088;-60
2023/10/11 05:30:34;;;;;;;23.13;7.15;;;13.60;99.90;;;;;;4967274;28;20057;-64
2023/10/11 05:52:08;;;;;;;21.48;6.70;;;13.10;99.90;;;;;;4980532;28;20072;-60
2023/10/11 05:54:35;;;;;;;19.70;6.27;;;13.10;99.90;;;;;;4974235;28;20058;-59
2023/10/11 05:57:03;;;;;;;;;;;13.10;99.90;;;;;;4970186;28;20062;-63
2023/10/11 05:59:35;;;;;;;21.65;6.68;;;13.00;99.90;;;;;;4973951;28;19968;-63
2023/10/11 06:02:02;;;;;;;20.42;7.55;;;13.10;99.90;;;;;;4966268;28;20037;-60
2023/10/11 06:04:30;;;;;;;35.08;9.38;;;13.10;99.90;;;;;;4969784;28;20053;-61
2023/10/11 06:06:59;;;;;;;15.52;6.82;;;13.20;99.90;;;;;;4964444;28;20030;-61
2023/10/11 06:09:27;;;;;;;20.17;8.00;;;13.30;99.90;;;;;;4967657;28;20054;-62
2023/10/11 06:11:53;;;;;;;23.88;7.68;;;13.30;99.90;;;;;;4969699;28;20034;-62
2023/10/11 06:14:20;;;;;;;21.70;6.57;;;13.30;99.90;;;;;;4971314;28;20030;-60
2023/10/11 06:16:57;;;;;;;19.23;8.27;;;13.30;99.90;;;;;;4973741;28;20067;-66
2023/10/11 06:19:27;;;;;;;17.90;7.00;;;13.30;99.90;;;;;;4977845;28;20504;-62
2023/10/11 06:21:58;;;;;;;25.30;7.93;;;13.30;99.90;;;;;;4984485;28;20554;-61
2023/10/11 06:24:30;;;;;;;18.60;7.53;;;13.40;99.90;;;;;;4974455;28;20030;-64
2023/10/11 06:27:11;;;;;;;21.98;7.50;;;13.50;99.90;;;;;;4977039;28;20057;-62
2023/10/11 06:29:45;;;;;;;19.50;7.25;;;13.50;99.90;;;;;;4975066;28;20085;-63
2023/10/11 06:32:11;;;;;;;21.95;6.07;;;13.40;99.90;;;;;;4974886;28;20031;-59
2023/10/11 06:34:45;;;;;;;23.58;7.03;;;13.50;99.90;;;;;;4974351;28;20446;-61
2023/10/11 06:37:11;;;;;;;19.23;7.63;;;13.40;99.90;;;;;;4973252;28;20122;-60
2023/10/11 06:42:13;;;;;;;17.77;7.68;;;13.50;99.90;;;;;;4984179;28;20034;-61
2023/10/11 06:44:43;;;;;;;24.48;7.57;;;13.50;99.90;;;;;;4974267;28;20039;-59
2023/10/11 06:47:11;;;;;;;18.85;7.55;;;13.50;99.90;;;;;;4976665;28;20076;-64
2023/10/11 06:49:40;;;;;;;30.88;7.97;;;13.50;99.90;;;;;;4977998;28;20046;-61
2023/10/11 06:52:15;;;;;;;29.17;8.18;;;13.70;99.90;;;;;;4967881;28;20112;-60
2023/10/11 06:55:07;;;;;;;17.27;7.22;;;13.80;99.90;;;;;;4975014;28;20030;-61
2023/10/11 06:57:38;;;;;;;21.73;7.68;;;13.90;99.90;;;;;;4977913;28;20035;-61
2023/10/11 07:00:14;;;;;;;19.60;6.55;;;14.20;99.90;;;;;;4974892;28;20411;-62
2023/10/11 07:02:47;;;;;;;19.55;6.32;;;14.40;99.90;;;;;;5003127;28;20092;-62
2023/10/11 07:05:20;;;;;;;28.52;6.50;;;14.50;99.90;;;;;;4983981;28;20496;-61
2023/10/11 07:07:47;;;;;;;23.98;6.90;;;14.80;99.90;;;;;;4979450;28;20514;-62
2023/10/11 07:10:33;;;;;;;29.10;8.55;;;14.70;99.90;;;;;;4979658;28;20038;-61
2023/10/11 07:13:09;;;;;;;19.60;8.18;;;15.40;99.90;;;;;;4980400;28;20038;-72
2023/10/11 07:15:40;;;;;;;27.15;8.20;;;17.40;99.90;;;;;;4975105;28;20031;-73
2023/10/11 07:18:10;;;;;;;20.17;7.22;;;18.10;98.70;;;;;;4981220;28;20065;-70
2023/10/11 07:20:48;;;;;;;22.85;7.35;;;18.40;97.50;;;;;;4974988;28;20097;-74
2023/10/11 07:23:20;;;;;;;20.00;7.40;;;18.80;94.20;;;;;;4976328;28;20026;-68
2023/10/11 07:25:59;;;;;;;23.13;8.18;;;18.60;93.70;;;;;;4970747;28;20034;-75
2023/10/11 07:28:35;;;;;;;21.67;6.40;;;17.30;96.50;;;;;;4977799;28;20047;-70
2023/10/11 07:31:04;;;;;;;29.15;6.80;;;16.50;99.90;;;;;;4975675;28;20804;-72
2023/10/11 07:33:31;;;;;;;22.77;6.90;;;16.40;99.90;;;;;;5013568;28;20057;-74
2023/10/11 07:36:00;;;;;;;15.35;5.68;;;16.30;99.90;;;;;;4981899;28;20614;-65
2023/10/11 07:38:34;;;;;;;27.58;6.82;;;17.20;99.90;;;;;;4973800;28;20038;-75
2023/10/11 07:41:17;;;;;;;28.08;6.53;;;16.90;99.90;;;;;;4967741;28;20038;-73
2023/10/11 07:43:45;;;;;;;28.77;6.55;;;17.70;99.40;;;;;;4975761;28;20038;-76
2023/10/11 07:46:11;;;;;;;23.52;6.68;;;18.40;96.40;;;;;;4978467;28;20507;-75
2023/10/11 07:48:39;;;;;;;20.17;6.90;;;17.90;96.90;;;;;;4973836;28;20062;-72
2023/10/11 07:51:09;;;;;;;18.70;6.63;;;18.00;98.00;;;;;;4973342;28;20067;-69
2023/10/11 07:53:37;;;;;;;28.52;7.45;;;18.60;96.20;;;;;;4981093;28;20026;-71
2023/10/11 07:56:03;;;;;;;21.38;6.75;;;20.30;92.60;;;;;;4981972;28;20035;-65
2023/10/11 07:58:32;;;;;;;20.55;6.68;;;20.80;90.60;;;;;;4975470;28;20185;-62
2023/10/11 08:01:03;;;;;;;23.20;7.53;;;21.00;90.10;;;;;;4974155;28;20042;-63
2023/10/11 08:03:34;;;;;;;22.58;6.78;;;21.40;86.70;;;;;;4983231;28;20706;-62
2023/10/11 08:06:05;;;;;;;15.73;5.40;;;21.60;86.10;;;;;;4976446;28;20102;-61
2023/10/11 08:08:31;;;;;;;14.73;5.78;;;22.10;84.50;;;;;;4976279;28;20053;-68
2023/10/11 08:10:59;;;;;;;20.95;7.10;;;22.80;81.30;;;;;;4983712;28;20491;-71
2023/10/11 08:13:25;;;;;;;15.52;4.47;;;23.30;82.10;;;;;;4974305;28;20061;-67
2023/10/11 08:15:58;;;;;;;22.30;6.25;;;23.30;80.60;;;;;;4977629;28;20441;-61
2023/10/11 08:18:24;;;;;;;16.65;5.07;;;23.30;78.80;;;;;;4977661;28;20038;-62
2023/10/11 08:20:51;;;;;;;14.70;5.35;;;23.30;79.90;;;;;;4977067;28;20042;-61
2023/10/11 08:23:50;;;;;;;22.90;5.95;;;23.50;77.10;;;;;;4980419;28;20037;-69
2023/10/11 08:26:14;;;;;;;14.52;5.35;;;24.30;77.40;;;;;;4970142;28;20770;-64
2023/10/11 08:28:48;;;;;;;15.40;5.00;;;24.80;76.20;;;;;;4979115;28;20053;-71
2023/10/11 08:31:21;;;;;;;15.48;4.82;;;24.90;75.20;;;;;;4977886;28;20089;-68
2023/10/11 08:33:46;;;;;;;18.30;6.28;;;24.90;73.90;;;;;;4981493;28;20129;-66
2023/10/11 08:36:14;;;;;;;17.45;7.60;;;25.20;74.60;;;;;;4982872;28;20450;-67
2023/10/11 08:38:40;;;;;;;19.23;6.03;;;25.40;74.30;;;;;;4973210;28;20100;-67
2023/10/11 08:41:09;;;;;;;23.60;5.93;;;25.70;74.80;;;;;;4976848;28;20506;-62
2023/10/11 08:43:36;;;;;;;16.45;5.82;;;25.90;74.60;;;;;;4967440;28;20553;-69
2023/10/11 08:46:05;;;;;;;15.13;5.20;;;25.90;71.80;;;;;;4973495;28;20081;-70
2023/10/11 08:48:38;;;;;;;18.58;5.78;;;25.80;70.70;;;;;;4975340;28;20406;-63
2023/10/11 08:51:10;;;;;;;22.75;6.28;;;25.60;70.90;;;;;;4970876;28;20043;-68
2023/10/11 08:53:46;;;;;;;18.33;5.60;;;25.60;73.70;;;;;;4976344;28;20035;-65
2023/10/11 08:56:14;;;;;;;25.10;6.72;;;25.80;72.40;;;;;;4968695;28;20426;-70
2023/10/11 08:58:41;;;;;;;19.38;5.50;;;26.00;71.70;;;;;;4978946;28;20061;-61
2023/10/11 09:01:07;;;;;;;21.27;5.90;;;25.90;72.40;;;;;;4973463;28;20034;-68
2023/10/11 09:03:40;;;;;;;17.00;5.95;;;25.90;72.30;;;;;;4977718;28;20483;-68
2023/10/11 09:06:19;;;;;;;22.90;8.02;;;25.70;73.30;;;;;;4974266;28;20035;-68
2023/10/11 09:08:47;;;;;;;28.90;6.32;;;26.10;72.60;;;;;;4973353;28;20038;-70
2023/10/11 09:11:32;;;;;;;15.18;5.43;;;26.20;72.60;;;;;;4979762;28;20022;-68
2023/10/11 09:14:11;;;;;;;21.35;6.50;;;26.20;70.90;;;;;;4973874;28;20050;-69
2023/10/11 09:16:37;;;;;;;22.65;6.05;;;26.10;70.20;;;;;;4971998;28;20162;-70
2023/10/11 09:19:09;;;;;;;19.38;5.28;;;26.20;72.30;;;;;;4974931;28;20057;-70
2023/10/11 09:21:38;;;;;;;16.20;5.13;;;26.30;73.20;;;;;;4980534;28;20402;-65
2023/10/11 09:24:41;;;;;;;22.92;6.10;;;26.00;73.70;;;;;;4974556;28;20023;-66
2023/10/11 09:29:47;;;;;;;15.35;5.53;;;24.80;72.80;;;;;;4970749;28;20581;-63
2023/10/11 09:32:19;;;;;;;18.45;5.10;;;24.40;72.60;;;;;;4982842;28;20037;-68
2023/10/11 09:34:45;;;;;;;22.20;6.50;;;24.10;76.10;;;;;;4969452;28;20035;-63
2023/10/11 09:37:11;;;;;;;14.98;5.38;;;23.90;75.80;;;;;;5001502;28;20035;-66
2023/10/11 09:39:47;;;;;;;19.75;5.95;;;23.70;77.60;;;;;;4974393;28;20081;-64
2023/10/11 09:42:15;;;;;;;19.10;5.32;;;23.50;76.40;;;;;;4974289;28;20038;-68
2023/10/11 09:44:46;;;;;;;28.00;6.78;;;23.70;82.00;;;;;;4977706;28;20037;-70
2023/10/11 09:47:19;;;;;;;15.60;5.03;;;23.90;76.40;;;;;;4969182;28;20038;-70
2023/10/11 09:49:47;;;;;;;16.25;5.45;;;23.90;80.10;;;;;;4975761;28;20035;-65
2023/10/11 09:52:23;;;;;;;14.82;5.82;;;23.60;78.00;;;;;;4974258;28;20094;-70
2023/10/11 09:54:51;;;;;;;16.25;5.53;;;23.30;80.10;;;;;;5009483;28;20050;-67
2023/10/11 09:57:35;;;;;;;18.08;5.25;;;23.10;80.50;;;;;;4974838;28;20038;-63
2023/10/11 10:00:37;;;;;;;17.08;5.72;;;23.10;78.40;;;;;;4979457;28;20558;-65
2023/10/11 10:03:05;;;;;;;19.02;4.93;;;22.90;81.80;;;;;;4969921;28;20113;-67
2023/10/11 10:06:05;;;;;;;22.35;5.63;;;23.00;79.80;;;;;;4973183;28;20034;-71
2023/10/11 10:08:31;;;;;;;20.80;6.03;;;23.10;83.80;;;;;;4980977;28;20137;-69
2023/10/11 10:10:57;;;;;;;20.33;5.10;;;23.10;82.10;;;;;;4975748;28;20070;-67
2023/10/11 10:13:26;;;;;;;14.18;5.22;;;22.90;82.60;;;;;;4975502;28;20054;-66
2023/10/11 10:15:53;;;;;;;16.55;4.90;;;23.00;82.30;;;;;;4979869;28;20447;-67
2023/10/11 10:18:22;;;;;;;20.00;4.38;;;22.90;82.40;;;;;;4979519;28;20038;-69
2023/10/11 10:21:04;;;;;;;19.25;4.60;;;22.90;80.90;;;;;;4973254;28;20061;-71
2023/10/11 10:23:42;;;;;;;18.70;5.57;;;22.90;81.10;;;;;;4978761;28;20109;-70
2023/10/11 10:26:08;;;;;;;32.70;13.00;;;22.90;81.10;;;;;;4975914;28;20218;-65
2023/10/11 10:28:36;;;;;;;31.67;12.77;;;22.80;83.20;;;;;;4977842;28;20047;-64
2023/10/11 10:31:08;;;;;;;35.05;8.30;;;22.80;82.70;;;;;;4977291;28;20593;-66
2023/10/11 10:33:35;;;;;;;20.90;6.88;;;22.80;82.60;;;;;;4980781;28;20022;-70
2023/10/11 10:36:22;;;;;;;23.00;6.80;;;22.80;83.60;;;;;;4971874;28;20116;-70
2023/10/11 10:39:05;;;;;;;12.20;4.87;;;22.70;87.60;;;;;;4967631;28;20034;-69
2023/10/11 10:41:32;;;;;;;33.55;8.18;;;22.80;84.00;;;;;;4965218;28;20033;-67
2023/10/11 10:44:05;;;;;;;48.20;27.40;;;22.80;84.90;;;;;;4977085;28;20034;-73
2023/10/11 10:46:32;;;;;;;19.48;7.20;;;22.80;83.70;;;;;;4976995;28;20069;-66
2023/10/11 10:48:57;;;;;;;15.48;6.60;;;22.80;83.10;;;;;;4978331;28;20580;-62
2023/10/11 10:51:27;;;;;;;16.65;4.80;;;22.80;83.40;;;;;;4978143;28;20034;-66
2023/10/11 10:53:53;;;;;;;17.70;5.47;;;22.80;81.40;;;;;;4977604;28;20074;-63
2023/10/11 10:56:26;;;;;;;18.08;5.68;;;22.80;83.30;;;;;;4982285;28;20530;-63
2023/10/11 10:59:14;;;;;;;20.83;5.35;;;22.80;84.80;;;;;;4973638;28;20038;-62
2023/10/11 11:01:46;;;;;;;18.58;5.65;;;23.10;80.50;;;;;;4977745;28;20124;-67
2023/10/11 11:04:15;;;;;;;15.10;5.38;;;23.00;81.50;;;;;;4972919;28;20055;-71
2023/10/11 11:06:46;;;;;;;20.88;6.88;;;22.90;81.60;;;;;;5004118;28;20100;-62
2023/10/11 11:09:18;;;;;;;15.88;5.07;;;22.90;82.00;;;;;;4976719;28;20085;-66
2023/10/11 11:11:45;;;;;;;15.15;4.82;;;22.80;85.60;;;;;;4976747;28;20023;-69
2023/10/11 11:14:15;;;;;;;16.27;5.32;;;22.80;83.20;;;;;;4974870;28;20513;-62
2023/10/11 11:16:44;;;;;;;20.30;6.30;;;22.90;85.70;;;;;;4973376;28;20035;-69
2023/10/11 11:19:16;;;;;;;13.77;5.15;;;22.90;83.90;;;;;;4977770;28;20034;-66
2023/10/11 11:21:46;;;;;;;13.80;5.70;;;23.00;83.90;;;;;;4977715;28;20150;-66
2023/10/11 11:24:27;;;;;;;23.35;5.50;;;23.00;83.50;;;;;;4978664;28;20037;-69
2023/10/11 11:26:53;;;;;;;22.48;6.07;;;23.00;82.20;;;;;;4974765;28;20088;-66
2023/10/11 11:29:32;;;;;;;19.35;6.35;;;23.00;84.40;;;;;;4977176;28;20403;-63
2023/10/11 11:31:59;;;;;;;21.00;5.90;;;23.10;83.80;;;;;;4976373;28;20137;-64
2023/10/11 11:34:34;;;;;;;18.85;5.60;;;23.10;83.70;;;;;;4985174;28;20022;-62
2023/10/11 11:37:07;;;;;;;21.25;5.70;;;23.10;83.00;;;;;;4977418;28;20411;-66
2023/10/11 11:42:01;;;;;;;23.00;7.75;;;23.10;84.10;;;;;;4982606;28;20155;-63
2023/10/11 11:44:31;;;;;;;17.47;5.83;;;23.10;82.50;;;;;;4976382;28;20769;-63
2023/10/11 11:47:04;;;;;;;19.15;7.43;;;23.20;83.20;;;;;;4978675;28;20897;-65
2023/10/11 11:49:29;;;;;;;14.77;6.47;;;23.20;84.00;;;;;;4982404;28;20057;-62
2023/10/11 11:51:55;;;;;;;21.13;5.88;;;23.20;84.40;;;;;;4976875;28;20436;-64
2023/10/11 11:54:23;;;;;;;17.95;5.80;;;23.40;82.60;;;;;;4977793;28;20030;-63
2023/10/11 11:56:54;;;;;;;17.00;5.95;;;23.40;84.40;;;;;;4978095;28;20527;-62
2023/10/11 11:59:25;;;;;;;23.88;6.25;;;23.60;83.00;;;;;;4976190;28;20662;-69
2023/10/11 12:02:01;;;;;;;18.75;5.78;;;23.60;82.60;;;;;;4978253;28;20125;-69
2023/10/11 12:04:29;;;;;;;20.65;5.60;;;23.70;81.80;;;;;;4985822;28;20030;-64
2023/10/11 12:07:04;;;;;;;20.27;5.55;;;23.70;83.00;;;;;;4973075;28;20046;-70
2023/10/11 12:09:38;;;;;;;16.05;5.82;;;23.80;83.50;;;;;;4977578;28;20034;-66
2023/10/11 12:12:05;;;;;;;13.45;5.88;;;23.90;81.20;;;;;;4978121;28;21007;-72
2023/10/11 12:14:37;;;;;;;15.38;4.82;;;24.00;80.90;;;;;;4978500;28;20031;-65
2023/10/11 12:17:09;;;;;;;17.15;5.80;;;24.00;80.10;;;;;;4975058;28;20049;-70
2023/10/11 12:19:40;;;;;;;14.63;5.38;;;23.90;81.20;;;;;;4978443;28;20030;-64
2023/10/11 12:22:06;;;;;;;23.30;5.95;;;23.90;82.80;;;;;;4975544;28;20582;-63
2023/10/11 12:24:32;;;;;;;11.95;5.18;;;23.90;82.80;;;;;;4976003;28;20085;-69
2023/10/11 12:26:58;;;;;;;14.88;5.53;;;23.70;84.00;;;;;;4986574;28;20077;-67
2023/10/11 12:29:26;;;;;;;20.70;6.37;;;23.80;84.40;;;;;;4978986;28;20471;-69
2023/10/11 12:31:53;;;;;;;14.45;5.78;;;23.80;86.60;;;;;;4982055;28;20303;-64
2023/10/11 12:34:24;;;;;;;18.27;5.88;;;23.90;82.00;;;;;;4974423;28;20392;-62
2023/10/11 12:36:52;;;;;;;16.17;5.57;;;24.10;80.90;;;;;;4975324;28;20845;-66
2023/10/11 12:39:20;;;;;;;15.63;5.43;;;24.50;80.60;;;;;;4977726;28;20030;-72
2023/10/11 12:41:50;;;;;;;22.95;5.63;;;24.60;77.10;;;;;;4973849;28;20057;-64
2023/10/11 12:44:17;;;;;;;19.85;5.75;;;24.60;79.80;;;;;;4977941;28;20043;-63
2023/10/11 12:46:43;;;;;;;20.80;5.68;;;24.60;78.20;;;;;;4980660;28;20044;-66
2023/10/11 12:49:13;;;;;;;16.15;6.13;;;24.70;76.10;;;;;;4977510;28;20030;-62
2023/10/11 12:51:42;;;;;;;18.40;5.97;;;24.80;76.20;;;;;;4974720;28;20129;-62
2023/10/11 12:54:11;;;;;;;13.88;5.65;;;24.80;76.40;;;;;;4978562;28;20039;-69
2023/10/11 12:56:38;;;;;;;12.48;5.15;;;24.90;77.10;;;;;;4974931;28;20031;-68
2023/10/11 12:59:10;;;;;;;13.85;6.55;;;24.80;76.40;;;;;;4974788;28;20040;-67
2023/10/11 13:01:40;;;;;;;13.95;5.72;;;24.60;78.40;;;;;;4975405;28;20070;-65
2023/10/11 13:04:10;;;;;;;18.90;5.18;;;24.60;79.40;;;;;;4974082;28;20130;-71
2023/10/11 13:06:40;;;;;;;16.02;5.68;;;24.70;78.70;;;;;;4983398;28;20084;-71
2023/10/11 13:09:16;;;;;;;13.27;6.35;;;24.70;78.20;;;;;;4978808;28;20130;-71
2023/10/11 13:11:44;;;;;;;15.77;5.90;;;24.70;77.90;;;;;;4974998;28;20027;-70
2023/10/11 13:14:19;;;;;;;13.55;5.75;;;24.60;78.40;;;;;;4979080;28;20026;-69
2023/10/11 13:16:51;;;;;;;25.17;7.60;;;24.70;79.20;;;;;;4967488;28;20030;-71
2023/10/11 13:19:18;;;;;;;14.98;5.90;;;24.70;78.70;;;;;;4975797;28;20031;-64
2023/10/11 13:21:54;;;;;;;15.45;5.88;;;24.80;77.40;;;;;;4975790;28;20039;-68
2023/10/11 13:24:25;;;;;;;12.10;5.57;;;24.70;79.60;;;;;;4976617;28;20030;-62
2023/10/11 13:26:52;;;;;;;17.15;6.00;;;24.70;76.50;;;;;;4976249;28;20793;-62
2023/10/11 13:29:18;;;;;;;12.90;5.15;;;24.90;76.80;;;;;;4977886;28;20141;-63
2023/10/11 13:31:48;;;;;;;;;;;24.90;74.40;;;;;;5016473;28;20030;-64
2023/10/11 13:34:17;;;;;;;15.40;5.60;;;25.10;72.10;;;;;;4987662;28;20382;-73
2023/10/11 13:36:43;;;;;;;16.15;5.82;;;25.20;74.20;;;;;;4980982;28;20036;-69
2023/10/11 13:39:27;;;;;;;15.43;6.70;;;25.30;73.40;;;;;;4980583;28;20035;-69
2023/10/11 13:41:52;;;;;;;17.35;6.10;;;25.30;74.30;;;;;;4978845;28;20516;-72
2023/10/11 13:44:19;;;;;;;16.15;6.18;;;25.30;72.70;;;;;;4980148;28;20574;-64
2023/10/11 13:46:51;;;;;;;11.98;4.85;;;25.30;73.80;;;;;;4976599;28;20122;-66